createdAt,value
2017-12-12T00:00:29.380Z,0.50
2017-12-12T00:02:57.648Z,6.77
2017-12-12T00:05:25.946Z,0.50
2017-12-12T00:07:54.234Z,1.30
2017-12-12T00:10:22.505Z,2.73
2017-12-12T00:12:50.796Z,0.60
2017-12-12T00:15:19.084Z,1.17
2017-12-12T00:17:48.132Z,2.90
2017-12-12T00:20:16.413Z,0.87
2017-12-12T00:22:44.805Z,1.20
2017-12-12T00:25:13.086Z,0.70
2017-12-12T00:27:41.361Z,0.70
2017-12-12T00:30:09.644Z,0.30
2017-12-12T00:32:37.929Z,1.00
2017-12-12T00:35:06.228Z,0.60
2017-12-12T00:37:34.513Z,0.40
2017-12-12T00:40:02.793Z,0.93
2017-12-12T00:42:31.070Z,0.67
2017-12-12T00:44:59.346Z,0.77
2017-12-12T00:47:27.625Z,0.47
2017-12-12T00:49:55.912Z,0.40
2017-12-12T00:52:24.193Z,1.80
2017-12-12T00:54:52.482Z,3.07
2017-12-12T00:57:20.764Z,0.50
2017-12-12T00:59:49.043Z,1.03
2017-12-12T01:02:17.372Z,1.30
2017-12-12T01:04:45.666Z,2.10
2017-12-12T01:07:13.937Z,1.17
2017-12-12T01:09:42.206Z,0.40
2017-12-12T01:12:10.488Z,0.70
2017-12-12T01:14:38.766Z,0.50
2017-12-12T01:17:07.043Z,1.10
2017-12-12T01:19:35.328Z,1.17
2017-12-12T01:22:03.601Z,1.73
2017-12-12T01:24:31.893Z,0.60
2017-12-12T01:27:00.696Z,1.17
2017-12-12T01:29:28.977Z,0.40
2017-12-12T01:31:57.261Z,1.10
2017-12-12T01:34:25.545Z,1.50
2017-12-12T01:36:53.821Z,1.13
2017-12-12T01:39:22.100Z,0.50
2017-12-12T01:41:50.416Z,0.90
2017-12-12T01:44:18.702Z,0.77
2017-12-12T01:46:47.997Z,0.30
2017-12-12T01:49:16.301Z,1.80
2017-12-12T01:51:44.576Z,0.80
2017-12-12T01:54:12.860Z,0.90
2017-12-12T01:56:41.984Z,0.90
2017-12-12T01:59:10.309Z,0.50
2017-12-12T02:01:38.592Z,0.67
2017-12-12T02:04:06.879Z,0.40
2017-12-12T02:06:35.165Z,1.77
2017-12-12T02:09:03.465Z,0.50
2017-12-12T02:11:31.740Z,0.30
2017-12-12T02:14:00.025Z,0.57
2017-12-12T02:16:28.345Z,0.50
2017-12-12T02:18:56.680Z,0.30
2017-12-12T02:21:25.725Z,0.30
2017-12-12T02:23:54.960Z,0.30
2017-12-12T02:26:24.022Z,0.60
2017-12-12T02:28:52.301Z,0.50
2017-12-12T02:31:20.592Z,0.40
2017-12-12T02:33:48.876Z,0.30
2017-12-12T02:36:17.165Z,0.50
2017-12-12T02:38:45.461Z,1.00
2017-12-12T02:41:13.744Z,0.50
2017-12-12T02:43:42.022Z,1.00
2017-12-12T02:46:10.345Z,0.50
2017-12-12T02:48:38.624Z,1.10
2017-12-12T02:51:06.980Z,0.90
2017-12-12T02:53:35.273Z,1.50
2017-12-12T02:56:03.550Z,1.50
2017-12-12T02:58:31.850Z,1.20
2017-12-12T03:01:00.155Z,2.40
2017-12-12T03:03:28.432Z,1.40
2017-12-12T03:05:56.749Z,1.63
2017-12-12T03:08:25.029Z,2.17
2017-12-12T03:10:53.337Z,2.20
2017-12-12T03:13:21.621Z,1.40
2017-12-12T03:15:50.669Z,1.60
2017-12-12T03:18:18.953Z,2.27
2017-12-12T03:20:47.233Z,1.70
2017-12-12T03:23:15.520Z,2.00
2017-12-12T03:25:43.850Z,2.80
2017-12-12T03:28:12.870Z,1.30
2017-12-12T03:30:46.918Z,2.20
2017-12-12T03:33:15.200Z,1.50
2017-12-12T03:35:44.257Z,1.33
2017-12-12T03:38:12.557Z,1.63
2017-12-12T03:40:40.836Z,2.27
2017-12-12T03:43:09.112Z,1.43
2017-12-12T03:45:37.396Z,2.03
2017-12-12T03:48:05.671Z,1.50
2017-12-12T03:50:34.709Z,1.37
2017-12-12T03:53:04.096Z,2.10
2017-12-12T03:55:32.376Z,2.00
2017-12-12T03:58:00.640Z,3.17
2017-12-12T04:00:28.940Z,2.07
2017-12-12T04:02:57.217Z,2.30
2017-12-12T04:05:25.496Z,1.87
2017-12-12T04:07:53.768Z,2.30
2017-12-12T04:10:22.064Z,2.10
2017-12-12T04:12:50.344Z,1.97
2017-12-12T04:15:19.473Z,1.43
2017-12-12T04:17:48.516Z,1.33
2017-12-12T04:20:16.807Z,1.80
2017-12-12T04:22:45.073Z,1.17
2017-12-12T04:25:13.350Z,0.80
2017-12-12T04:27:41.624Z,1.17
2017-12-12T04:30:09.914Z,1.83
2017-12-12T04:32:38.192Z,3.03
2017-12-12T04:35:07.389Z,1.70
2017-12-12T04:37:35.687Z,2.43
2017-12-12T04:40:03.977Z,1.50
2017-12-12T04:42:32.256Z,3.97
2017-12-12T04:45:01.296Z,2.10
2017-12-12T04:47:29.560Z,2.03
2017-12-12T04:49:57.841Z,1.27
2017-12-12T04:52:26.128Z,1.83
2017-12-12T04:54:56.046Z,1.40
2017-12-12T04:57:24.316Z,1.93
2017-12-12T04:59:52.644Z,1.50
2017-12-12T05:02:21.685Z,1.80
2017-12-12T05:04:49.973Z,2.75
2017-12-12T05:07:18.244Z,4.10
2017-12-12T05:09:46.528Z,1.10
2017-12-12T05:12:14.811Z,1.00
2017-12-12T05:14:43.856Z,5.40
2017-12-12T05:17:12.132Z,1.80
2017-12-12T05:19:40.435Z,1.93
2017-12-12T05:22:08.717Z,1.23
2017-12-12T05:24:37.001Z,1.35
2017-12-12T05:27:05.308Z,2.10
2017-12-12T05:29:33.610Z,0.97
2017-12-12T05:32:02.660Z,1.93
2017-12-12T05:34:30.944Z,1.00
2017-12-12T05:36:59.225Z,2.70
2017-12-12T05:39:27.515Z,1.10
2017-12-12T05:41:55.814Z,1.67
2017-12-12T05:44:24.101Z,1.20
2017-12-12T05:46:52.385Z,1.37
2017-12-12T05:49:20.664Z,1.40
2017-12-12T05:51:48.982Z,7.93
2017-12-12T05:54:17.752Z,1.47
2017-12-12T05:56:47.156Z,2.20
2017-12-12T05:59:15.585Z,1.00
2017-12-12T06:01:44.355Z,1.23
2017-12-12T06:04:12.666Z,2.50
2017-12-12T06:06:42.508Z,1.90
2017-12-12T06:09:10.821Z,1.20
2017-12-12T06:11:39.099Z,2.10
2017-12-12T06:14:07.402Z,2.03
2017-12-12T06:16:35.708Z,1.83
2017-12-12T06:19:04.029Z,1.20
2017-12-12T06:21:32.303Z,1.50
2017-12-12T06:24:01.546Z,2.03
2017-12-12T06:26:29.821Z,3.43
2017-12-12T06:28:58.103Z,1.50
2017-12-12T06:31:26.370Z,1.10
2017-12-12T06:33:55.887Z,1.90
2017-12-12T06:36:24.201Z,1.17
2017-12-12T06:38:52.509Z,1.40
2017-12-12T06:41:20.881Z,2.10
2017-12-12T06:43:49.151Z,1.10
2017-12-12T06:46:18.211Z,1.13
2017-12-12T06:48:46.492Z,1.43
2017-12-12T06:51:14.785Z,1.03
2017-12-12T06:53:43.070Z,1.00
2017-12-12T06:56:11.363Z,1.10
2017-12-12T06:58:39.654Z,1.20
2017-12-12T07:01:08.058Z,1.23
2017-12-12T07:03:36.350Z,1.00
2017-12-12T07:06:05.006Z,1.37
2017-12-12T07:08:33.441Z,1.50
2017-12-12T07:11:02.565Z,0.80
2017-12-12T07:13:30.861Z,2.47
2017-12-12T07:15:59.145Z,2.73
2017-12-12T07:18:27.424Z,1.67
2017-12-12T07:20:55.700Z,2.10
2017-12-12T07:23:24.009Z,2.70
2017-12-12T07:25:52.294Z,1.30
2017-12-12T07:28:20.585Z,2.20
2017-12-12T07:30:49.633Z,2.20
2017-12-12T07:33:17.905Z,2.57
2017-12-12T07:35:46.304Z,1.83
2017-12-12T07:38:14.607Z,1.33
2017-12-12T07:40:42.897Z,2.40
2017-12-12T07:43:11.194Z,2.43
2017-12-12T07:45:39.469Z,4.40
2017-12-12T07:48:07.765Z,4.37
2017-12-12T07:50:36.133Z,4.13
2017-12-12T07:53:04.429Z,2.90
2017-12-12T07:55:32.740Z,4.80
2017-12-12T07:58:01.821Z,5.73
2017-12-12T08:00:30.150Z,3.83
2017-12-12T08:02:58.437Z,3.47
2017-12-12T08:05:26.720Z,6.27
2017-12-12T08:07:54.992Z,4.90
2017-12-12T08:10:23.285Z,4.13
2017-12-12T08:12:51.559Z,4.07
2017-12-12T08:15:19.870Z,3.37
2017-12-12T08:17:48.942Z,5.20
2017-12-12T08:20:17.217Z,6.53
2017-12-12T08:22:45.498Z,4.90
2017-12-12T08:25:13.787Z,6.13
2017-12-12T08:27:42.075Z,3.20
2017-12-12T08:30:10.378Z,6.43
2017-12-12T08:32:38.650Z,2.60
2017-12-12T08:35:06.961Z,4.77
2017-12-12T08:37:35.305Z,4.90
2017-12-12T08:40:03.617Z,6.07
2017-12-12T08:42:31.901Z,6.60
2017-12-12T08:45:00.177Z,4.50
2017-12-12T08:47:28.453Z,4.27
2017-12-12T08:49:56.737Z,6.43
2017-12-12T08:52:25.031Z,6.37
2017-12-12T08:54:53.329Z,4.43
2017-12-12T08:57:21.607Z,5.53
2017-12-12T08:59:50.181Z,7.53
2017-12-12T09:02:18.459Z,9.50
2017-12-12T09:04:47.604Z,4.70
2017-12-12T09:07:15.889Z,7.40
2017-12-12T09:09:44.172Z,7.90
2017-12-12T09:12:12.492Z,8.67
2017-12-12T09:14:40.813Z,5.27
2017-12-12T09:17:09.098Z,7.00
2017-12-12T09:19:37.377Z,5.80
2017-12-12T09:22:05.654Z,6.60
2017-12-12T09:24:33.933Z,3.97
2017-12-12T09:27:02.278Z,4.60
2017-12-12T09:29:30.579Z,6.93
2017-12-12T09:31:58.844Z,5.37
2017-12-12T09:34:27.130Z,4.37
2017-12-12T09:36:55.424Z,4.13
2017-12-12T09:39:23.743Z,4.47
2017-12-12T09:41:52.044Z,5.27
2017-12-12T09:44:20.321Z,5.80
2017-12-12T09:46:48.609Z,4.43
2017-12-12T09:49:16.889Z,3.90
2017-12-12T09:51:45.528Z,4.67
2017-12-12T09:54:13.809Z,4.47
2017-12-12T09:56:42.080Z,3.97
2017-12-12T09:59:10.362Z,4.10
2017-12-12T10:01:38.663Z,4.20
2017-12-12T10:04:07.143Z,4.43
2017-12-12T10:06:36.043Z,2.90
2017-12-12T10:09:04.302Z,8.90
2017-12-12T10:11:32.567Z,3.30
2017-12-12T10:14:00.859Z,4.50
2017-12-12T10:16:29.157Z,5.20
2017-12-12T10:18:57.453Z,3.87
2017-12-12T10:21:25.742Z,4.97
2017-12-12T10:23:54.032Z,3.07
2017-12-12T10:26:22.331Z,4.37
2017-12-12T10:28:50.676Z,3.27
2017-12-12T10:31:22.669Z,4.40
2017-12-12T10:33:50.949Z,4.07
2017-12-12T10:36:19.228Z,7.13
2017-12-12T10:38:47.504Z,3.27
2017-12-12T10:41:15.784Z,2.23
2017-12-12T10:43:44.068Z,3.97
2017-12-12T10:46:12.416Z,3.30
2017-12-12T10:48:40.704Z,4.10
2017-12-12T10:51:09.013Z,3.72
2017-12-12T10:53:37.292Z,5.30
2017-12-12T10:56:05.576Z,4.63
2017-12-12T10:58:33.849Z,2.00
2017-12-12T11:01:02.138Z,2.72
2017-12-12T11:03:30.415Z,4.70
2017-12-12T11:05:58.700Z,3.90
2017-12-12T11:08:26.975Z,5.23
2017-12-12T11:10:55.293Z,4.03
2017-12-12T11:13:23.564Z,2.97
2017-12-12T11:15:51.857Z,4.30
2017-12-12T11:18:20.148Z,3.90
2017-12-12T11:20:48.436Z,6.00
2017-12-12T11:23:16.720Z,2.73
2017-12-12T11:25:45.012Z,5.32
2017-12-12T11:28:13.337Z,4.13
2017-12-12T11:30:41.630Z,3.93
2017-12-12T11:33:09.922Z,4.30
2017-12-12T11:35:38.219Z,4.80
2017-12-12T11:38:06.508Z,6.07
2017-12-12T11:40:35.561Z,3.50
2017-12-12T11:43:03.848Z,7.03
2017-12-12T11:45:32.921Z,2.93
2017-12-12T11:48:01.243Z,7.90
2017-12-12T11:50:30.286Z,3.70
2017-12-12T11:52:58.577Z,5.50
2017-12-12T11:55:26.865Z,5.23
2017-12-12T11:57:55.158Z,4.97
2017-12-12T12:00:23.464Z,4.30
2017-12-12T12:02:53.545Z,4.90
2017-12-12T12:05:21.829Z,3.57
2017-12-12T12:07:50.161Z,3.83
2017-12-12T12:10:18.459Z,4.30
2017-12-12T12:12:46.742Z,6.53
2017-12-12T12:15:15.081Z,3.83
2017-12-12T12:17:43.371Z,3.57
2017-12-12T12:20:11.645Z,4.67
2017-12-12T12:22:39.988Z,4.67
2017-12-12T12:25:08.302Z,5.80
2017-12-12T12:27:36.572Z,4.57
2017-12-12T12:30:04.862Z,5.70
2017-12-12T12:32:33.169Z,3.10
2017-12-12T12:35:01.447Z,3.77
2017-12-12T12:37:29.754Z,5.47
2017-12-12T12:39:58.040Z,2.85
2017-12-12T12:42:26.310Z,4.40
2017-12-12T12:44:54.586Z,4.70
2017-12-12T12:47:22.862Z,7.50
2017-12-12T12:49:51.145Z,5.30
2017-12-12T12:52:19.429Z,2.93
2017-12-12T12:54:47.712Z,4.47
2017-12-12T12:57:16.055Z,5.50
2017-12-12T12:59:44.340Z,4.27
2017-12-12T13:02:12.635Z,3.00
2017-12-12T13:04:41.186Z,2.73
2017-12-12T13:07:09.476Z,2.80
2017-12-12T13:09:37.764Z,4.10
2017-12-12T13:12:06.056Z,4.33
2017-12-12T13:14:34.342Z,5.57
2017-12-12T13:17:02.645Z,2.80
2017-12-12T13:19:30.953Z,3.63
2017-12-12T13:21:59.244Z,3.03
2017-12-12T13:24:28.019Z,2.57
2017-12-12T13:26:56.296Z,4.73
2017-12-12T13:29:24.601Z,5.63
2017-12-12T13:31:52.893Z,4.60
2017-12-12T13:34:21.169Z,4.77
2017-12-12T13:36:49.807Z,2.53
2017-12-12T13:39:18.099Z,5.00
2017-12-12T13:41:46.392Z,5.00
2017-12-12T13:44:14.697Z,4.00
2017-12-12T13:46:44.721Z,4.17
2017-12-12T13:49:13.531Z,3.07
2017-12-12T13:51:41.837Z,3.67
2017-12-12T13:54:10.114Z,3.17
2017-12-12T13:56:39.164Z,3.50
2017-12-12T13:59:08.256Z,3.20
2017-12-12T14:01:36.542Z,4.20
2017-12-12T14:04:05.703Z,5.10
2017-12-12T14:06:35.298Z,3.20
2017-12-12T14:09:03.582Z,3.50
2017-12-12T14:11:31.887Z,3.50
2017-12-12T14:14:00.179Z,4.33
2017-12-12T14:16:29.224Z,3.23
2017-12-12T14:18:57.508Z,3.07
2017-12-12T14:21:25.808Z,3.03
2017-12-12T14:23:54.171Z,2.87
2017-12-12T14:26:22.464Z,2.60
2017-12-12T14:28:50.745Z,3.93
2017-12-12T14:31:19.796Z,3.13
2017-12-12T14:33:48.098Z,2.73
2017-12-12T14:36:16.379Z,2.30
2017-12-12T14:38:44.664Z,4.63
2017-12-12T14:41:12.961Z,4.05
2017-12-12T14:43:41.997Z,6.30
2017-12-12T14:46:10.295Z,4.33
2017-12-12T14:48:38.576Z,2.90
2017-12-12T14:51:06.868Z,2.87
2017-12-12T14:53:35.145Z,3.00
2017-12-12T14:56:03.433Z,3.83
2017-12-12T14:58:32.482Z,4.67
2017-12-12T15:01:00.770Z,3.10
2017-12-12T15:03:29.050Z,3.67
2017-12-12T15:05:57.344Z,2.23
2017-12-12T15:08:25.624Z,2.70
2017-12-12T15:10:54.680Z,4.10
2017-12-12T15:13:22.960Z,4.93
2017-12-12T15:15:51.253Z,4.40
2017-12-12T15:18:19.532Z,4.07
2017-12-12T15:20:47.823Z,3.90
2017-12-12T15:23:16.117Z,4.50
2017-12-12T15:25:44.396Z,2.10
2017-12-12T15:28:12.697Z,3.33
2017-12-12T15:30:40.985Z,4.72
2017-12-12T15:33:09.242Z,4.10
2017-12-12T15:35:37.540Z,3.90
2017-12-12T15:38:05.856Z,4.53
2017-12-12T15:40:34.149Z,3.13
2017-12-12T15:43:03.197Z,4.57
2017-12-12T15:45:31.485Z,8.67
2017-12-12T15:47:59.757Z,4.63
2017-12-12T15:50:28.060Z,4.47
2017-12-12T15:52:56.372Z,14.77
2017-12-12T15:55:24.644Z,7.37
2017-12-12T15:57:52.919Z,5.87
2017-12-12T16:00:21.205Z,3.93
2017-12-12T16:02:49.508Z,4.20
2017-12-12T16:05:17.809Z,3.25
2017-12-12T16:07:46.096Z,3.60
2017-12-12T16:10:14.448Z,2.80
2017-12-12T16:12:42.728Z,4.33
2017-12-12T16:15:11.025Z,3.57
2017-12-12T16:17:40.214Z,4.33
2017-12-12T16:20:08.497Z,4.80
2017-12-12T16:22:36.781Z,4.63
2017-12-12T16:25:05.073Z,3.67
2017-12-12T16:27:33.352Z,4.13
2017-12-12T16:30:01.640Z,4.67
2017-12-12T16:32:29.954Z,7.07
2017-12-12T16:34:58.273Z,4.17
2017-12-12T16:37:26.558Z,5.87
2017-12-12T16:39:54.854Z,8.30
2017-12-12T16:42:23.132Z,4.87
2017-12-12T16:44:51.424Z,5.70
2017-12-12T16:47:19.709Z,6.23
2017-12-12T16:49:48.036Z,5.93
2017-12-12T16:52:16.350Z,5.17
2017-12-12T16:54:44.629Z,4.60
2017-12-12T16:57:12.913Z,5.90
2017-12-12T16:59:41.440Z,5.13
2017-12-12T17:02:09.725Z,5.70
2017-12-12T17:04:38.021Z,8.10
2017-12-12T17:07:06.315Z,6.17
2017-12-12T17:09:34.773Z,9.03
2017-12-12T17:12:03.110Z,5.80
2017-12-12T17:14:32.210Z,7.90
2017-12-12T17:17:00.569Z,6.80
2017-12-12T17:19:28.867Z,7.73
2017-12-12T17:21:58.018Z,7.17
2017-12-12T17:24:27.228Z,7.97
2017-12-12T17:26:55.835Z,12.53
2017-12-12T17:29:24.264Z,7.73
2017-12-12T17:31:53.054Z,6.37
2017-12-12T17:34:23.076Z,16.57
2017-12-12T17:36:52.303Z,6.20
2017-12-12T17:39:22.687Z,5.43
2017-12-12T17:41:51.789Z,7.20
2017-12-12T17:44:23.367Z,8.56
2017-12-12T17:46:52.390Z,9.13
2017-12-12T17:49:22.411Z,5.70
2017-12-12T17:51:51.993Z,6.90
2017-12-12T17:54:22.047Z,6.97
2017-12-12T17:56:51.382Z,10.93
2017-12-12T17:59:22.203Z,5.70
2017-12-12T18:01:51.828Z,7.80
2017-12-12T18:04:22.245Z,7.10
2017-12-12T18:06:52.058Z,8.60
2017-12-12T18:09:22.402Z,10.35
2017-12-12T18:11:52.187Z,6.70
2017-12-12T18:14:23.107Z,9.20
2017-12-12T18:16:52.849Z,6.13
2017-12-12T18:19:22.630Z,7.07
2017-12-12T18:21:52.393Z,8.77
2017-12-12T18:24:23.285Z,8.35
2017-12-12T18:26:53.157Z,15.93
2017-12-12T18:29:23.235Z,15.13
2017-12-12T18:31:53.066Z,10.23
2017-12-12T18:34:22.863Z,9.07
2017-12-12T18:36:52.684Z,12.13
2017-12-12T18:39:22.486Z,10.20
2017-12-12T18:41:52.279Z,12.53
2017-12-12T18:44:22.500Z,10.82
2017-12-12T18:46:53.098Z,17.30
2017-12-12T18:49:22.805Z,12.23
2017-12-12T18:51:52.621Z,10.60
2017-12-12T18:54:22.485Z,7.63
2017-12-12T18:56:52.337Z,13.93
2017-12-12T18:59:22.659Z,12.50
2017-12-12T19:01:53.661Z,16.17
2017-12-12T19:04:23.621Z,12.63
2017-12-12T19:06:53.424Z,13.23
2017-12-12T19:09:23.487Z,12.10
2017-12-12T19:11:53.327Z,9.93
2017-12-12T19:14:23.204Z,10.33
2017-12-12T19:16:53.149Z,7.93
2017-12-12T19:19:23.041Z,10.47
2017-12-12T19:21:53.030Z,6.67
2017-12-12T19:24:22.910Z,9.53
2017-12-12T19:26:52.871Z,8.30
2017-12-12T19:29:22.806Z,10.70
2017-12-12T19:31:53.564Z,8.40
2017-12-12T19:34:23.607Z,8.07
2017-12-12T19:36:54.295Z,11.50
2017-12-12T19:39:24.330Z,7.97
2017-12-12T19:41:54.533Z,10.53
2017-12-12T19:44:25.467Z,14.33
2017-12-12T19:46:55.417Z,9.30
2017-12-12T19:49:25.409Z,9.47
2017-12-12T19:51:55.394Z,18.20
2017-12-12T19:54:25.991Z,9.67
2017-12-12T19:56:55.916Z,16.00
2017-12-12T19:59:25.920Z,9.20
2017-12-12T20:01:55.947Z,12.87
2017-12-12T20:04:25.828Z,10.73
2017-12-12T20:06:55.755Z,8.77
2017-12-12T20:09:26.234Z,10.90
2017-12-12T20:11:56.170Z,9.63
2017-12-12T20:14:26.124Z,9.03
2017-12-12T20:16:56.280Z,9.30
2017-12-12T20:19:26.245Z,9.40
2017-12-12T20:21:56.250Z,10.63
2017-12-12T20:24:26.283Z,9.40
2017-12-12T20:26:56.185Z,7.70
2017-12-12T20:29:26.408Z,8.10
2017-12-12T20:31:56.460Z,9.40
2017-12-12T20:34:26.425Z,9.33
2017-12-12T20:36:57.881Z,12.13
2017-12-12T20:39:27.783Z,9.67
2017-12-12T20:41:58.486Z,9.70
2017-12-12T20:44:28.438Z,10.57
2017-12-12T20:46:58.454Z,11.53
2017-12-12T20:49:29.193Z,13.47
2017-12-12T20:52:00.099Z,12.37
2017-12-12T20:54:29.989Z,17.17
2017-12-12T20:56:59.845Z,14.17
2017-12-12T20:59:31.110Z,13.03
2017-12-12T21:02:01.109Z,11.30
2017-12-12T21:04:31.778Z,13.47
2017-12-12T21:07:07.063Z,17.10
2017-12-12T21:09:37.276Z,11.10
2017-12-12T21:12:07.242Z,13.63
2017-12-12T21:14:37.351Z,11.70
2017-12-12T21:17:07.268Z,10.87
2017-12-12T21:19:38.595Z,11.67
2017-12-12T21:22:08.472Z,13.83
2017-12-12T21:24:38.355Z,10.75
2017-12-12T21:27:08.215Z,7.70
2017-12-12T21:29:38.098Z,12.90
2017-12-12T21:32:08.001Z,12.73
2017-12-12T21:34:37.837Z,11.50
2017-12-12T21:37:08.460Z,8.87
2017-12-12T21:39:39.687Z,9.15
2017-12-12T21:42:09.608Z,10.30
2017-12-12T21:44:39.411Z,11.70
2017-12-12T21:47:09.166Z,12.30
2017-12-12T21:49:38.974Z,11.40
2017-12-12T21:52:09.366Z,9.43
2017-12-12T21:54:39.266Z,9.90
2017-12-12T21:57:09.104Z,6.77
2017-12-12T21:59:38.884Z,9.93
2017-12-12T22:02:08.679Z,11.37
2017-12-12T22:04:39.583Z,11.50
2017-12-12T22:07:09.654Z,10.40
2017-12-12T22:09:39.286Z,12.60
2017-12-12T22:12:09.120Z,12.67
2017-12-12T22:14:38.898Z,10.80
2017-12-12T22:17:08.557Z,9.60
2017-12-12T22:19:38.169Z,13.90
2017-12-12T22:22:08.115Z,10.73
2017-12-12T22:24:37.390Z,10.97
2017-12-12T22:27:06.163Z,8.87
2017-12-12T22:29:34.600Z,8.70
2017-12-12T22:32:02.993Z,8.50
2017-12-12T22:34:31.309Z,8.90
2017-12-12T22:37:00.368Z,7.00
2017-12-12T22:39:28.655Z,8.00
2017-12-12T22:41:58.248Z,6.80
2017-12-12T22:44:26.556Z,7.70
2017-12-12T22:46:54.872Z,6.50
2017-12-12T22:49:23.160Z,6.70
2017-12-12T22:51:51.521Z,11.50
2017-12-12T22:54:19.809Z,8.63
2017-12-12T22:56:48.548Z,6.43
2017-12-12T22:59:17.596Z,5.97
2017-12-12T23:01:46.003Z,5.70
2017-12-12T23:04:14.345Z,10.50
2017-12-12T23:06:43.540Z,5.33
2017-12-12T23:09:11.825Z,6.30
2017-12-12T23:11:40.129Z,5.72
2017-12-12T23:14:09.303Z,5.73
2017-12-12T23:16:37.647Z,4.97
2017-12-12T23:19:06.827Z,5.30
2017-12-12T23:21:35.104Z,6.87
2017-12-12T23:24:04.131Z,3.17
2017-12-12T23:26:32.524Z,4.80
2017-12-12T23:29:00.803Z,4.13
2017-12-12T23:31:29.188Z,4.27
2017-12-12T23:33:57.490Z,4.00
2017-12-12T23:36:25.783Z,4.93
2017-12-12T23:38:54.841Z,4.60
2017-12-12T23:41:23.131Z,4.97
2017-12-12T23:43:51.462Z,3.40
2017-12-12T23:46:20.521Z,4.47
2017-12-12T23:48:49.576Z,4.03
2017-12-12T23:51:17.973Z,3.80
2017-12-12T23:53:46.552Z,6.60
2017-12-12T23:56:14.918Z,3.90
2017-12-12T23:58:44.040Z,4.20
